Nearby METAR Reports

 

KAFF - US Air Force Academy
Distance from station: W 3mi, 4km
Updated: Tue, Jun-15-2021 6:58pm MDT
Clear
Clear
 Wind from S
Wind: S 9 mph , 15 km/h
Temperature: 84°F , 29°C
Dew Point: 50°F , 10°C
Humidity: 31%
Barometer: 30.25 inHg , 1024.4 hPa
Clouds: Clear
Visibility: 10 miles , 16 km
2021/06/16 00:58 KAFF 160058Z AUTO 18008KT 10SM CLR 29/10 A3025 RMK AO2 SLP147 T02940095
KCOS - Colorado Springs Municipal
Distance from station: SSE 11mi, 18km
Updated: Tue, Jun-15-2021 6:54pm MDT
Mostly cloudy
Mostly cloudy
 Wind from SSE
Wind: SSE 7 mph , 11 km/h
Temperature: 88°F , 31°C
Dew Point: 46°F , 8°C
Humidity: 24%
Barometer: 30.24 inHg , 1024 hPa
Clouds: Mostly cloudy
Visibility: 10 miles , 16 km
Cloud details: Few Clouds 14000 ft
Mostly cloudy 25000 ft
2021/06/16 00:54 KCOS 160054Z 16006KT 10SM FEW140 BKN250 31/08 A3024 RMK AO2 SLP137 T03110083
 
KFLY - Colorado Springs Meadow
Distance from station: E 11mi, 18km
Updated: Tue, Jun-15-2021 7:35pm MDT
Clear
Clear
 Wind from SE
Wind: SE 8 mph , 13 km/h
Temperature: 81°F , 27°C
Dew Point: 46°F , 8°C
Humidity: 30%
Barometer: 30.32 inHg , 1026.8 hPa
Clouds: Clear
Visibility: 10 miles , 16 km
2021/06/16 01:35 KFLY 160135Z AUTO 14007KT 10SM CLR 27/08 A3032 RMK AO2 T02740075
KCWN - Cheyenne Mountain
Distance from station: SSW 15mi, 24km
Updated: Tue, Jun-15-2021 5:58pm MDT
NOT Current
Clear
Clear
 Wind from S
Wind: S 9 mph , 15 km/h
Temperature: 82°F , 28°C
Dew Point: 48°F , 9°C
Humidity: 30%
Barometer: 30.26 inHg , 1024.7 hPa
Clouds: Clear
Visibility: 10 miles , 16 km
2021/06/15 23:58 KCWN 152358Z AUTO 17008KT 10SM CLR 28/09 A3026 RMK AO2 LTG DSNT SW-W SLP052 60001 T02780089 10292 20248 55007 $
 
KMNH - Monument/Elbert
Distance from station: NNE 19mi, 30km
Updated: Tue, Jun-15-2021 7:35pm MDT
Clear
Clear
 Wind from SSE
Wind: SSE 9 mph , 15 km/h
Temperature: 75°F , 24°C
Dew Point: 52°F , 11°C
Humidity: 44%
Barometer: 30.32 inHg , 1026.8 hPa
Clouds: Clear
Visibility: 10 miles , 16 km
2021/06/16 01:35 KMNH 160135Z AUTO 16008KT 10SM CLR 24/11 A3032 RMK AO2
KFCS - Fort Carson
Distance from station: S 20mi, 33km
Updated: Tue, Jun-15-2021 6:58pm MDT
Clear
Clear
 Wind from SSE
Wind: SSE 3 mph , 6 km/h
Temperature: 86°F , 30°C
Dew Point: 46°F , 8°C
Humidity: 25%
Barometer: 30.18 inHg , 1022 hPa
Clouds: Clear
Visibility: 10 miles , 16 km
2021/06/16 00:58 KFCS 160058Z AUTO 15003KT 10SM CLR 30/08 A3018 RMK AO2 SLP151 T03010079 $
 
KABH - Ellicot
Distance from station: ESE 29mi, 46km
Updated: Tue, Jun-15-2021 6:58pm MDT
Few Clouds
Few Clouds
 Wind from SE
Wind: SE 7 mph , 11 km/h
Temperature: 86°F , 30°C
Dew Point: 46°F , 8°C
Humidity: 25%
Barometer: 30.24 inHg , 1024 hPa
Clouds: Few Clouds
Visibility: 10 miles , 16 km
Cloud details: Few Clouds 21000 ft
2021/06/16 00:58 KABH 160058Z AUTO 14006KT 10SM FEW210 30/08 A3024 RMK AO2 SLP157 T03020080
K1V6 - Canon City
Distance from station: SSW 41mi, 65km
Updated: Tue, Jun-15-2021 7:35pm MDT
Clear
Clear
 Wind from NE
Wind: NE 3 mph , 6 km/h
Temperature: 88°F , 31°C
Dew Point: 52°F , 11°C
Humidity: 29%
Barometer: 30.14 inHg , 1020.7 hPa
Clouds: Clear
Visibility: 10 miles , 16 km
2021/06/16 01:35 K1V6 160135Z AUTO 05003KT 10SM CLR 31/11 A3014 RMK AO2
 
K4BM - Wilkerson Pass
Distance from station: W 41mi, 65km
Updated: Tue, Jun-15-2021 7:35pm MDT
Light rain, Overcast
Light rain, Overcast
 Wind from SSE
Wind: SSE 13 mph , 20 km/h
Temperature: 61°F , 16°C
Dew Point: 39°F , 4°C
Humidity: 45%
Barometer: 30.75 inHg , 1041.3 hPa
Summary: Light rain
Clouds: Overcast
Visibility: 10 miles , 16 km
Cloud details: Partly cloudy 7000 ft
Mostly cloudy 8000 ft
Overcast 11000 ft
2021/06/16 01:35 K4BM 160135Z AUTO 15011KT 10SM -RA SCT070 BKN080 OVC110 16/04 A3075 RMK AO2
KAPA - Denver/Arapahoe
Distance from station: N 42mi, 68km
Updated: Tue, Jun-15-2021 6:53pm MDT
Mostly cloudy
Mostly cloudy
 Wind from S
Wind: S 14 mph , 22 km/h, Gust: 22 mph , 35 km/h
Temperature: 90°F , 32°C
Dew Point: 48°F , 9°C
Humidity: 24%
Barometer: 30.16 inHg , 1021.3 hPa
Clouds: Mostly cloudy
Visibility: 10 miles , 16 km
Cloud details: Few Clouds 11000 ft
Few Clouds 14000 ft
Mostly cloudy 22000 ft
2021/06/16 00:53 KAPA 160053Z 19012G19KT 10SM FEW110 FEW140 BKN220 32/09 A3016 RMK AO2 SLP122 T03170089 $
 
KPUB - Pueblo
Distance from station: SSE 49mi, 79km
Updated: Tue, Jun-15-2021 6:53pm MDT
Clear
Clear
 Wind from E
Wind: E 7 mph , 11 km/h
Temperature: 91°F , 33°C
Dew Point: 54°F , 12°C
Humidity: 28%
Barometer: 30.07 inHg , 1018.3 hPa
Clouds: Clear
Visibility: 10 miles , 16 km
2021/06/16 00:53 KPUB 160053Z 10006KT 10SM CLR 33/12 A3007 RMK AO2 SLP108 T03330122